Time;durP1;ratioP1;P1;durP2;ratioP2;P2;SDS_P1;SDS_P2;PMS_P1;PMS_P2;Temp;Humidity;BMP_temperature;BMP_pressure;BME280_temperature;BME280_humidity;BME280_pressure;Samples;Min_cycle;Max_cycle;Signal;HPM_P1;HPM_P2
2023/04/06 00:01:14;;;;;;;17.07;8.70;;;7.60;45.00;;;;;;5090593;28;20479;-83
2023/04/06 00:03:41;;;;;;;12.30;7.50;;;7.50;45.30;;;;;;5087355;28;20480;-79
2023/04/06 00:06:10;;;;;;;17.23;8.57;;;7.50;45.00;;;;;;5087020;28;20455;-82
2023/04/06 00:08:37;;;;;;;10.33;7.17;;;7.50;44.60;;;;;;5089953;28;21225;-83
2023/04/06 00:11:04;;;;;;;9.20;7.60;;;7.50;44.50;;;;;;5089382;28;20440;-83
2023/04/06 00:13:31;;;;;;;12.57;7.77;;;7.50;44.60;;;;;;5089327;28;20466;-83
2023/04/06 00:15:58;;;;;;;15.97;7.93;;;7.50;44.30;;;;;;5088339;28;20443;-83
2023/04/06 00:18:26;;;;;;;17.73;8.17;;;7.50;44.30;;;;;;5091912;28;20504;-82
2023/04/06 00:20:53;;;;;;;11.87;8.03;;;7.50;44.30;;;;;;5105115;27;20471;-85
2023/04/06 00:23:21;;;;;;;21.50;10.63;;;7.40;44.30;;;;;;5090444;28;20451;-82
2023/04/06 00:25:49;;;;;;;11.53;8.53;;;7.30;44.70;;;;;;5089778;28;20547;-81
2023/04/06 00:28:16;;;;;;;14.47;8.83;;;7.30;45.10;;;;;;5074020;28;20513;-83
2023/04/06 00:30:43;;;;;;;15.30;9.07;;;7.30;44.70;;;;;;5071895;28;20473;-82
2023/04/06 00:33:10;;;;;;;20.23;8.57;;;7.30;44.50;;;;;;5088213;28;21145;-84
2023/04/06 00:35:38;;;;;;;13.00;8.40;;;7.40;44.60;;;;;;5093187;28;20508;-83
2023/04/06 00:38:05;;;;;;;15.30;8.40;;;7.30;44.70;;;;;;5088157;28;20601;-82
2023/04/06 00:40:35;;;;;;;10.00;7.27;;;7.30;44.80;;;;;;5087914;28;20537;-82
2023/04/06 00:43:02;;;;;;;15.67;8.73;;;7.30;44.70;;;;;;5085676;28;21146;-83
2023/04/06 00:45:29;;;;;;;15.33;8.00;;;7.10;45.00;;;;;;5089757;28;20440;-83
2023/04/06 00:47:57;;;;;;;14.80;8.00;;;7.10;45.50;;;;;;5073767;28;20474;-82
2023/04/06 00:50:24;;;;;;;11.20;8.07;;;7.10;45.20;;;;;;5089539;28;20455;-82
2023/04/06 00:52:51;;;;;;;16.70;8.40;;;7.00;44.80;;;;;;5086062;28;20451;-82
2023/04/06 00:55:23;;;;;;;10.67;8.33;;;6.90;45.90;;;;;;5106379;27;20443;-83
2023/04/06 00:57:52;;;;;;;13.53;8.30;;;6.90;45.70;;;;;;5077972;28;20451;-81
2023/04/06 01:00:20;;;;;;;12.07;7.57;;;6.90;45.40;;;;;;5064894;28;20487;-82
2023/04/06 01:02:50;;;;;;;15.50;8.67;;;7.00;45.30;;;;;;5055972;28;20535;-83
2023/04/06 01:05:20;;;;;;;12.50;7.63;;;7.00;45.10;;;;;;5072657;28;20585;-83
2023/04/06 01:07:54;;;;;;;16.40;10.13;;;7.00;45.10;;;;;;5073807;28;20933;-83
2023/04/06 01:10:26;;;;;;;12.73;8.47;;;6.90;45.00;;;;;;5075744;28;20856;-82
2023/04/06 01:13:00;;;;;;;12.90;7.70;;;6.90;45.00;;;;;;5074063;28;20462;-83
2023/04/06 01:15:44;;;;;;;11.67;7.83;;;6.90;45.20;;;;;;5084576;28;20487;-84
2023/04/06 01:18:15;;;;;;;10.83;6.97;;;6.70;45.90;;;;;;5086351;28;20452;-85
2023/04/06 01:20:49;;;;;;;15.97;9.23;;;6.50;46.60;;;;;;5107435;27;20474;-82
2023/04/06 01:23:19;;;;;;;10.93;6.90;;;6.30;48.40;;;;;;5075188;28;20458;-83
2023/04/06 01:25:47;;;;;;;13.43;7.60;;;6.20;47.90;;;;;;5092091;27;20454;-83
2023/04/06 01:28:14;;;;;;;14.07;7.87;;;6.30;47.50;;;;;;5066537;28;20454;-84
2023/04/06 01:30:52;;;;;;;11.40;7.90;;;6.30;46.80;;;;;;5074476;28;20812;-83
2023/04/06 01:33:39;;;;;;;10.07;7.73;;;6.30;45.90;;;;;;5108529;27;20451;-82
2023/04/06 01:36:09;;;;;;;9.10;6.70;;;6.20;46.30;;;;;;5071980;28;20508;-82
2023/04/06 01:38:38;;;;;;;13.97;7.20;;;6.20;46.40;;;;;;5073969;28;20810;-83
2023/04/06 01:41:05;;;;;;;8.77;6.87;;;6.20;47.10;;;;;;5090662;28;20555;-84
2023/04/06 01:43:45;;;;;;;12.20;7.80;;;6.30;47.00;;;;;;5091999;28;20980;-83
2023/04/06 01:46:12;;;;;;;12.77;7.80;;;6.30;46.40;;;;;;5090509;28;20545;-83
2023/04/06 01:48:42;;;;;;;13.30;8.03;;;6.20;46.70;;;;;;5089474;28;20835;-83
2023/04/06 01:51:20;;;;;;;15.27;8.80;;;6.30;46.90;;;;;;5092733;28;20466;-84
2023/04/06 01:53:55;;;;;;;12.23;8.00;;;6.30;46.60;;;;;;5106297;27;20508;-82
2023/04/06 01:56:25;;;;;;;11.97;7.73;;;6.30;46.60;;;;;;5090963;28;20443;-80
2023/04/06 01:59:02;;;;;;;12.43;8.30;;;6.40;46.40;;;;;;5093181;27;20469;-83
2023/04/06 02:01:36;;;;;;;11.17;7.13;;;6.40;46.20;;;;;;5084812;28;20463;-84
2023/04/06 02:04:04;;;;;;;14.23;7.07;;;6.40;46.10;;;;;;5090202;28;20462;-83
2023/04/06 02:06:31;;;;;;;12.37;7.07;;;6.40;46.10;;;;;;5075776;28;20943;-82
2023/04/06 02:09:00;;;;;;;12.20;7.53;;;6.40;46.10;;;;;;5103716;27;20472;-83
2023/04/06 02:11:28;;;;;;;10.07;7.67;;;6.40;46.10;;;;;;5074026;28;20542;-84
2023/04/06 02:13:56;;;;;;;12.23;7.10;;;6.40;46.10;;;;;;5078365;27;20555;-82
2023/04/06 02:16:28;;;;;;;13.53;7.40;;;6.40;46.10;;;;;;5084850;28;20436;-85
2023/04/06 02:18:55;;;;;;;13.10;7.10;;;6.30;45.90;;;;;;5080854;28;20479;-82
2023/04/06 02:21:22;;;;;;;12.53;7.87;;;6.30;45.90;;;;;;5094247;28;21003;-82
2023/04/06 02:23:49;;;;;;;10.57;6.90;;;6.30;46.00;;;;;;5106983;27;20436;-83
2023/04/06 02:26:18;;;;;;;11.43;7.53;;;6.30;46.20;;;;;;5092974;27;20454;-82
2023/04/06 02:28:45;;;;;;;11.20;7.80;;;6.20;45.90;;;;;;5092790;28;20452;-82
2023/04/06 02:31:13;;;;;;;9.17;6.87;;;6.20;46.40;;;;;;5082070;27;20810;-83
2023/04/06 02:33:40;;;;;;;14.10;7.17;;;6.10;46.70;;;;;;5091155;27;20446;-82
2023/04/06 02:36:08;;;;;;;10.17;7.27;;;6.10;46.80;;;;;;5074142;28;20560;-80
2023/04/06 02:38:35;;;;;;;13.50;7.90;;;6.10;46.70;;;;;;5095293;27;20443;-80
2023/04/06 02:41:03;;;;;;;11.40;8.60;;;6.10;46.80;;;;;;5078766;28;20466;-83
2023/04/06 02:43:32;;;;;;;13.43;7.87;;;6.00;47.40;;;;;;5093301;28;20477;-83
2023/04/06 02:46:06;;;;;;;10.03;6.80;;;5.80;47.90;;;;;;5090981;28;20435;-83
2023/04/06 02:48:38;;;;;;;13.33;6.57;;;5.80;47.30;;;;;;5081084;28;20513;-80
2023/04/06 02:51:05;;;;;;;10.97;7.50;;;5.90;47.30;;;;;;5065128;28;20821;-84
2023/04/06 02:53:32;;;;;;;10.90;6.20;;;5.80;47.60;;;;;;5085938;28;20443;-83
2023/04/06 02:55:59;;;;;;;8.97;6.83;;;5.90;47.90;;;;;;5104329;27;20450;-83
2023/04/06 02:58:36;;;;;;;12.80;7.10;;;5.90;47.00;;;;;;5100137;28;20450;-81
2023/04/06 03:01:04;;;;;;;15.03;8.07;;;5.90;47.20;;;;;;5075739;28;21001;-82
2023/04/06 03:03:31;;;;;;;14.47;7.33;;;5.80;47.80;;;;;;5082710;28;20448;-81
2023/04/06 03:06:00;;;;;;;9.43;5.70;;;5.40;48.60;;;;;;5070118;28;20547;-81
2023/04/06 03:08:30;;;;;;;9.17;6.00;;;5.20;49.20;;;;;;5104718;27;20447;-83
2023/04/06 03:10:57;;;;;;;11.90;6.17;;;4.50;50.50;;;;;;5081086;28;20455;-82
2023/04/06 03:13:32;;;;;;;7.60;5.60;;;4.50;50.80;;;;;;5105617;27;20466;-82
2023/04/06 03:16:00;;;;;;;10.77;6.80;;;4.70;50.20;;;;;;5077543;28;20454;-82
2023/04/06 03:18:28;;;;;;;10.83;7.00;;;4.90;49.80;;;;;;5081540;28;20455;-82
2023/04/06 03:20:57;;;;;;;9.57;6.13;;;5.10;49.50;;;;;;5087809;28;20470;-82
2023/04/06 03:23:35;;;;;;;7.87;6.30;;;5.00;49.30;;;;;;5106285;27;20530;-83
2023/04/06 03:26:03;;;;;;;9.03;7.17;;;4.90;49.80;;;;;;5080865;28;20945;-82
2023/04/06 03:28:30;;;;;;;12.00;7.20;;;5.10;49.10;;;;;;5072166;28;20447;-84
2023/04/06 03:31:05;;;;;;;12.13;7.63;;;5.20;48.70;;;;;;5104916;27;20956;-82
2023/04/06 03:34:05;;;;;;;11.20;6.70;;;5.30;48.50;;;;;;5046631;28;20454;-81
2023/04/06 03:36:35;;;;;;;11.80;7.03;;;5.40;48.20;;;;;;5092534;28;20439;-83
2023/04/06 03:39:04;;;;;;;8.63;6.50;;;5.50;48.10;;;;;;5086893;28;20474;-85
2023/04/06 03:41:35;;;;;;;10.60;7.10;;;5.50;47.90;;;;;;5080012;28;21180;-82
2023/04/06 03:44:09;;;;;;;9.03;6.10;;;5.50;47.80;;;;;;5081262;28;20486;-83
2023/04/06 03:46:39;;;;;;;12.40;7.50;;;5.50;47.50;;;;;;5107750;27;20534;-84
2023/04/06 03:49:06;;;;;;;10.80;7.10;;;5.40;47.10;;;;;;5076959;28;20510;-83
2023/04/06 03:51:34;;;;;;;12.83;7.50;;;5.20;47.10;;;;;;5078767;28;20438;-82
2023/04/06 03:54:01;;;;;;;10.90;7.83;;;5.10;47.40;;;;;;5077136;28;20452;-84
2023/04/06 03:56:28;;;;;;;12.53;7.37;;;5.00;48.30;;;;;;5090453;28;21240;-81
2023/04/06 03:58:55;;;;;;;11.83;6.67;;;5.10;48.10;;;;;;5089008;28;20495;-85
2023/04/06 04:01:22;;;;;;;8.33;6.43;;;5.20;48.10;;;;;;5090070;28;22354;-83
2023/04/06 04:03:51;;;;;;;9.57;6.07;;;5.20;47.80;;;;;;5081586;28;20496;-84
2023/04/06 04:06:18;;;;;;;12.77;8.40;;;5.20;47.30;;;;;;5090514;28;20447;-84
2023/04/06 04:08:45;;;;;;;11.73;8.47;;;5.00;49.00;;;;;;5108050;27;21003;-83
2023/04/06 04:11:12;;;;;;;11.90;8.63;;;4.90;48.80;;;;;;5064041;28;20454;-82
2023/04/06 04:13:39;;;;;;;10.90;6.73;;;5.00;48.70;;;;;;5091305;28;20455;-82
2023/04/06 04:16:08;;;;;;;10.67;6.20;;;4.90;48.70;;;;;;5069684;28;20445;-83
2023/04/06 04:18:36;;;;;;;12.17;8.07;;;4.30;49.60;;;;;;5057025;28;20539;-81
2023/04/06 04:21:05;;;;;;;21.30;10.20;;;3.80;51.10;;;;;;5073176;28;20447;-82
2023/04/06 04:23:32;;;;;;;11.00;8.33;;;3.60;52.10;;;;;;5105539;27;20550;-83
2023/04/06 04:25:59;;;;;;;9.40;7.10;;;3.80;51.30;;;;;;5060623;28;20454;-83
2023/04/06 04:28:26;;;;;;;10.43;5.77;;;4.00;50.90;;;;;;5046073;28;20896;-83
2023/04/06 04:30:55;;;;;;;6.90;5.40;;;4.30;50.20;;;;;;5088610;28;20972;-83
2023/04/06 04:33:24;;;;;;;8.07;5.60;;;4.40;49.10;;;;;;5076892;28;21422;-83
2023/04/06 04:35:54;;;;;;;9.87;5.70;;;4.10;50.70;;;;;;5094202;28;20444;-85
2023/04/06 04:38:25;;;;;;;7.97;6.43;;;3.80;51.20;;;;;;5070362;28;20824;-83
2023/04/06 04:40:55;;;;;;;22.37;11.73;;;3.60;51.80;;;;;;5065463;28;20427;-85
2023/04/06 04:43:23;;;;;;;9.47;6.63;;;3.60;52.10;;;;;;5087486;28;20470;-83
2023/04/06 04:45:50;;;;;;;11.27;6.90;;;3.70;51.90;;;;;;5054051;28;20448;-83
2023/04/06 04:48:34;;;;;;;14.60;8.10;;;3.80;51.70;;;;;;5074582;28;20948;-81
2023/04/06 04:51:05;;;;;;;11.03;8.10;;;4.00;51.30;;;;;;5107963;27;20443;-83
2023/04/06 04:53:47;;;;;;;12.60;6.80;;;4.00;51.20;;;;;;5082149;28;20446;-82
2023/04/06 04:56:20;;;;;;;15.83;8.57;;;3.70;51.10;;;;;;5078218;28;20471;-82
2023/04/06 04:58:51;;;;;;;18.80;9.90;;;3.90;51.20;;;;;;5077784;28;21003;-82
2023/04/06 05:01:18;;;;;;;16.77;10.27;;;4.00;51.00;;;;;;5070058;28;20517;-82
2023/04/06 05:03:46;;;;;;;14.80;9.50;;;4.20;51.00;;;;;;5081687;28;21125;-82
2023/04/06 05:06:15;;;;;;;10.37;6.87;;;4.40;50.30;;;;;;5106934;27;20455;-82
2023/04/06 05:08:44;;;;;;;12.63;6.53;;;4.50;49.70;;;;;;5077846;28;20826;-81
2023/04/06 05:11:12;;;;;;;10.80;7.73;;;4.60;49.30;;;;;;5092882;28;20459;-82
2023/04/06 05:13:45;;;;;;;11.73;7.27;;;4.70;49.50;;;;;;5085533;28;20455;-82
2023/04/06 05:16:22;;;;;;;11.70;7.10;;;4.70;49.60;;;;;;5104283;27;20457;-81
2023/04/06 05:18:51;;;;;;;11.87;7.50;;;4.80;49.20;;;;;;5036759;28;20483;-83
2023/04/06 05:21:18;;;;;;;10.80;7.77;;;4.90;48.90;;;;;;5073071;28;20448;-81
2023/04/06 05:23:55;;;;;;;16.40;8.70;;;5.00;48.90;;;;;;5057603;28;20995;-84
2023/04/06 05:26:24;;;;;;;12.13;7.30;;;5.00;48.70;;;;;;5060052;28;20452;-82
2023/04/06 05:28:55;;;;;;;9.97;7.20;;;5.00;48.80;;;;;;5080485;28;20938;-80
2023/04/06 05:31:23;;;;;;;10.80;7.20;;;5.00;49.00;;;;;;5091884;28;21018;-82
2023/04/06 05:33:51;;;;;;;13.40;7.13;;;5.00;49.20;;;;;;5078868;28;20455;-80
2023/04/06 05:36:28;;;;;;;11.27;7.50;;;4.90;49.60;;;;;;5084581;28;20816;-81
2023/04/06 05:38:56;;;;;;;15.40;8.67;;;4.70;50.70;;;;;;5091355;28;20561;-81
2023/04/06 05:41:36;;;;;;;12.07;8.20;;;4.70;51.20;;;;;;5080920;28;20546;-81
2023/04/06 05:44:03;;;;;;;17.30;9.63;;;4.60;51.60;;;;;;5088997;28;20462;-81
2023/04/06 05:46:31;;;;;;;26.23;10.03;;;4.10;52.50;;;;;;5073612;28;20452;-79
2023/04/06 05:49:00;;;;;;;18.17;10.10;;;4.10;52.90;;;;;;5103440;27;20920;-81
2023/04/06 05:51:31;;;;;;;15.70;9.13;;;4.40;52.50;;;;;;5072393;28;20495;-82
2023/04/06 05:53:58;;;;;;;15.53;9.30;;;4.50;51.90;;;;;;5087917;28;20479;-84
2023/04/06 05:56:26;;;;;;;15.53;9.47;;;4.70;51.50;;;;;;5071420;28;21245;-82
2023/04/06 05:58:54;;;;;;;19.93;10.17;;;4.80;51.30;;;;;;5071272;28;21078;-83
2023/04/06 06:01:28;;;;;;;13.37;9.47;;;4.90;50.70;;;;;;5044171;28;20452;-81
2023/04/06 06:03:56;;;;;;;18.20;9.20;;;5.10;50.50;;;;;;5106619;27;20995;-82
2023/04/06 06:06:29;;;;;;;16.60;8.87;;;5.10;50.10;;;;;;5080261;28;20459;-83
2023/04/06 06:09:17;;;;;;;14.73;8.77;;;5.20;50.10;;;;;;5084473;27;20522;-82
2023/04/06 06:11:56;;;;;;;18.20;11.30;;;5.30;50.20;;;;;;5090654;28;20448;-81
2023/04/06 06:14:28;;;;;;;17.27;10.53;;;5.30;50.00;;;;;;5073295;28;20459;-82
2023/04/06 06:16:55;;;;;;;18.47;9.33;;;5.30;49.90;;;;;;5072110;28;20613;-84
2023/04/06 06:19:23;;;;;;;16.23;10.37;;;5.30;49.80;;;;;;5078761;28;21903;-81
2023/04/06 06:21:52;;;;;;;16.57;9.50;;;5.30;49.80;;;;;;5088996;28;21043;-81
2023/04/06 06:24:19;;;;;;;15.40;9.50;;;5.40;50.10;;;;;;5069474;28;20466;-80
2023/04/06 06:26:48;;;;;;;12.70;8.50;;;5.40;50.00;;;;;;5081330;28;21016;-82
2023/04/06 06:29:16;;;;;;;22.17;10.33;;;5.40;50.10;;;;;;5069075;27;20479;-81
2023/04/06 06:31:45;;;;;;;14.70;9.83;;;5.40;50.20;;;;;;5092282;28;20976;-82
2023/04/06 06:34:13;;;;;;;14.67;9.23;;;5.40;50.60;;;;;;5086532;28;20455;-83
2023/04/06 06:36:40;;;;;;;15.57;9.17;;;5.40;50.90;;;;;;5069875;28;20806;-82
2023/04/06 06:39:09;;;;;;;15.43;8.63;;;5.40;50.80;;;;;;5070514;28;20460;-83
2023/04/06 06:41:37;;;;;;;14.17;9.00;;;5.40;50.90;;;;;;5071339;28;20454;-81
2023/04/06 06:44:05;;;;;;;14.00;8.53;;;5.60;50.60;;;;;;5071339;28;20514;-81
2023/04/06 06:46:32;;;;;;;20.63;9.53;;;5.60;50.40;;;;;;5087621;28;20543;-81
2023/04/06 06:49:02;;;;;;;13.77;8.50;;;5.60;50.40;;;;;;5088509;28;20485;-82
2023/04/06 06:51:29;;;;;;;14.87;8.47;;;5.50;51.00;;;;;;5073450;28;20521;-82
2023/04/06 06:53:56;;;;;;;14.97;9.33;;;5.50;51.00;;;;;;5073879;28;20900;-82
2023/04/06 06:56:23;;;;;;;12.73;8.33;;;5.70;50.90;;;;;;5087054;28;21452;-82
2023/04/06 06:58:52;;;;;;;10.30;7.60;;;5.80;50.90;;;;;;5079887;28;20476;-81
2023/04/06 07:01:20;;;;;;;11.43;7.90;;;5.80;50.50;;;;;;5090097;27;20454;-82
2023/04/06 07:03:47;;;;;;;18.07;8.07;;;5.90;50.30;;;;;;5078747;28;20484;-81
2023/04/06 07:06:15;;;;;;;11.30;8.17;;;5.90;50.90;;;;;;5088719;28;20810;-82
2023/04/06 07:08:42;;;;;;;13.57;8.53;;;5.90;50.40;;;;;;5065347;28;20497;-80
2023/04/06 07:11:09;;;;;;;15.30;8.23;;;6.00;50.10;;;;;;5092734;27;20480;-81
2023/04/06 07:13:36;;;;;;;15.40;8.17;;;6.00;49.80;;;;;;5075239;28;20460;-81
2023/04/06 07:16:03;;;;;;;24.33;8.80;;;6.10;49.40;;;;;;5062839;28;20450;-85
2023/04/06 07:18:30;;;;;;;19.87;8.90;;;6.00;49.50;;;;;;5079369;28;20450;-82
2023/04/06 07:20:59;;;;;;;15.70;8.30;;;6.10;49.80;;;;;;5081868;28;20447;-83
2023/04/06 07:23:27;;;;;;;15.27;9.37;;;6.00;49.50;;;;;;5105113;27;20856;-82
2023/04/06 07:25:54;;;;;;;11.37;8.40;;;6.10;49.70;;;;;;5077480;28;20452;-81
2023/04/06 07:28:22;;;;;;;13.80;9.50;;;6.20;49.70;;;;;;5090745;28;20515;-81
2023/04/06 07:30:49;;;;;;;14.80;8.90;;;6.30;49.70;;;;;;5085365;28;21493;-82
2023/04/06 07:33:16;;;;;;;19.87;10.90;;;6.20;49.40;;;;;;5089663;27;20435;-83
2023/04/06 07:35:44;;;;;;;13.27;9.00;;;6.30;49.60;;;;;;5082563;28;20452;-82
2023/04/06 07:38:12;;;;;;;15.03;8.60;;;6.20;49.30;;;;;;5070903;28;20449;-82
2023/04/06 07:40:41;;;;;;;15.70;9.50;;;6.30;49.30;;;;;;5073438;28;20466;-83
2023/04/06 07:43:08;;;;;;;16.43;10.20;;;6.10;49.00;;;;;;5070454;28;21233;-82
2023/04/06 07:45:36;;;;;;;16.13;9.30;;;6.00;49.60;;;;;;5105047;27;20899;-80
2023/04/06 07:48:04;;;;;;;13.80;8.97;;;6.20;49.70;;;;;;5074930;28;20452;-82
2023/04/06 07:50:32;;;;;;;15.93;9.40;;;6.10;49.50;;;;;;5063973;28;21068;-84
2023/04/06 07:53:00;;;;;;;14.60;9.17;;;6.30;50.30;;;;;;5107368;27;20529;-83
2023/04/06 07:55:28;;;;;;;14.37;10.00;;;6.30;49.70;;;;;;5086927;27;20446;-82
2023/04/06 07:57:56;;;;;;;13.50;9.07;;;6.50;49.40;;;;;;5091626;28;20440;-84
2023/04/06 08:00:23;;;;;;;15.23;9.73;;;6.50;49.10;;;;;;5089785;28;20490;-82
2023/04/06 08:02:50;;;;;;;17.57;10.47;;;6.80;49.10;;;;;;5099804;27;20503;-83
2023/04/06 08:05:18;;;;;;;18.50;10.10;;;6.90;48.70;;;;;;5089124;28;20498;-84
2023/04/06 08:07:45;;;;;;;15.10;9.60;;;7.00;48.10;;;;;;5091522;28;20937;-84
2023/04/06 08:10:12;;;;;;;15.27;9.80;;;7.00;48.10;;;;;;5089040;28;20567;-82
2023/04/06 08:12:39;;;;;;;13.47;10.47;;;7.00;48.60;;;;;;5091410;28;20487;-81
2023/04/06 08:15:08;;;;;;;14.73;10.00;;;7.00;48.80;;;;;;5072007;28;20864;-83
2023/04/06 08:17:35;;;;;;;19.83;10.40;;;7.10;49.50;;;;;;5071041;28;20484;-82
2023/04/06 08:20:03;;;;;;;17.23;10.63;;;7.30;49.80;;;;;;5103807;27;21503;-86
2023/04/06 08:22:30;;;;;;;16.07;10.33;;;7.50;49.50;;;;;;5090520;28;20434;-82
2023/04/06 08:24:57;;;;;;;23.23;10.83;;;7.70;49.20;;;;;;5075558;28;20451;-84
2023/04/06 08:27:24;;;;;;;12.73;10.73;;;7.80;49.00;;;;;;5070935;28;20455;-84
2023/04/06 08:29:51;;;;;;;13.03;9.50;;;8.00;49.10;;;;;;5090413;28;20471;-84
2023/04/06 08:32:20;;;;;;;12.93;9.90;;;8.20;47.80;;;;;;5089474;28;20467;-85
2023/04/06 08:34:47;;;;;;;13.97;9.00;;;8.10;48.00;;;;;;5091137;28;20445;-84
2023/04/06 08:37:14;;;;;;;27.87;11.07;;;8.10;47.10;;;;;;5086470;28;20561;-84
2023/04/06 08:39:41;;;;;;;18.80;11.20;;;8.20;47.60;;;;;;5088387;28;20569;-83
2023/04/06 08:42:17;;;;;;;13.80;9.73;;;8.30;47.70;;;;;;5090177;28;20451;-84
2023/04/06 08:44:45;;;;;;;14.50;10.03;;;8.50;47.50;;;;;;5058443;28;20467;-84
2023/04/06 08:47:12;;;;;;;14.27;10.57;;;8.60;47.30;;;;;;5072079;28;20455;-85
2023/04/06 08:49:43;;;;;;;19.70;11.30;;;8.70;47.10;;;;;;5071599;28;20903;-84
2023/04/06 08:52:11;;;;;;;17.30;9.60;;;8.70;47.20;;;;;;5090539;28;20447;-83
2023/04/06 08:54:39;;;;;;;14.73;10.23;;;9.00;47.40;;;;;;5063048;28;20474;-83
2023/04/06 08:57:06;;;;;;;19.97;11.00;;;9.30;47.30;;;;;;5086551;28;20434;-84
2023/04/06 08:59:35;;;;;;;18.73;10.60;;;9.60;47.00;;;;;;5087892;28;20478;-84
2023/04/06 09:02:05;;;;;;;20.27;11.37;;;9.80;46.80;;;;;;5038370;28;20984;-85
2023/04/06 09:04:33;;;;;;;15.40;10.77;;;9.90;46.20;;;;;;5088023;28;20466;-84
2023/04/06 09:07:01;;;;;;;15.27;9.70;;;10.00;45.10;;;;;;5085081;28;20440;-84
2023/04/06 09:09:29;;;;;;;17.90;9.60;;;10.10;45.30;;;;;;5085580;28;20477;-83
2023/04/06 09:12:01;;;;;;;15.07;10.77;;;10.20;44.70;;;;;;5079377;28;20459;-83
2023/04/06 09:14:36;;;;;;;17.23;10.53;;;10.30;44.80;;;;;;5068679;28;20488;-83
2023/04/06 09:17:03;;;;;;;14.97;10.67;;;10.50;45.10;;;;;;5067944;28;20458;-84
2023/04/06 09:19:31;;;;;;;16.00;11.13;;;10.60;44.80;;;;;;5084658;28;20456;-83
2023/04/06 09:22:04;;;;;;;16.60;11.13;;;10.90;44.60;;;;;;5069381;28;21134;-85
2023/04/06 09:24:41;;;;;;;15.63;11.97;;;11.00;44.70;;;;;;5070040;28;20497;-82
2023/04/06 09:27:08;;;;;;;14.67;10.40;;;11.20;44.50;;;;;;5084060;28;20458;-84
2023/04/06 09:29:36;;;;;;;11.83;9.57;;;11.20;44.30;;;;;;5089410;28;20554;-85
2023/04/06 09:32:05;;;;;;;15.17;9.93;;;11.40;44.50;;;;;;5058722;28;20446;-84
2023/04/06 09:34:32;;;;;;;15.50;10.70;;;11.60;44.00;;;;;;5088429;28;20449;-83
2023/04/06 09:36:59;;;;;;;16.53;10.37;;;11.80;43.80;;;;;;5091082;27;20538;-84
2023/04/06 09:39:28;;;;;;;15.60;11.00;;;12.10;43.00;;;;;;5088987;27;20574;-86
2023/04/06 09:41:55;;;;;;;14.80;10.30;;;12.30;42.40;;;;;;5092292;28;20452;-84
2023/04/06 09:44:23;;;;;;;14.27;9.60;;;12.40;42.00;;;;;;5087644;28;20482;-84
2023/04/06 09:46:54;;;;;;;14.30;10.20;;;12.60;41.60;;;;;;5086690;27;20964;-85
2023/04/06 09:49:21;;;;;;;15.53;10.50;;;12.80;41.10;;;;;;5079431;28;20577;-85
2023/04/06 09:51:54;;;;;;;17.70;10.00;;;12.90;41.10;;;;;;5088190;28;20435;-84
2023/04/06 09:54:24;;;;;;;15.93;9.60;;;13.30;40.90;;;;;;5057065;28;20960;-84
2023/04/06 09:56:59;;;;;;;16.70;10.73;;;13.60;38.10;;;;;;5077503;28;20521;-85
2023/04/06 09:59:37;;;;;;;12.97;9.43;;;14.10;38.70;;;;;;5087108;28;20563;-84
2023/04/06 10:02:06;;;;;;;15.60;8.40;;;14.20;35.20;;;;;;5089733;28;20529;-85
2023/04/06 10:04:41;;;;;;;10.97;8.40;;;14.00;31.90;;;;;;5086415;28;20873;-84
2023/04/06 10:07:11;;;;;;;11.50;8.57;;;14.00;34.20;;;;;;5088306;27;20443;-85
2023/04/06 10:09:39;;;;;;;15.73;9.40;;;14.40;34.10;;;;;;5089526;28;20467;-84
2023/04/06 10:12:08;;;;;;;13.53;9.13;;;14.70;33.10;;;;;;5088769;28;21213;-84
2023/04/06 10:14:36;;;;;;;11.20;7.67;;;14.90;32.00;;;;;;5090373;28;20456;-84
2023/04/06 10:17:04;;;;;;;9.30;7.57;;;15.00;29.90;;;;;;5087164;28;20814;-83
2023/04/06 10:19:40;;;;;;;11.33;8.13;;;15.10;30.30;;;;;;5087657;27;20542;-83
2023/04/06 10:22:11;;;;;;;9.27;7.50;;;15.30;29.60;;;;;;5090844;28;20834;-85
2023/04/06 10:24:38;;;;;;;14.87;7.83;;;15.20;29.40;;;;;;5089416;28;20524;-83
2023/04/06 10:27:10;;;;;;;14.13;7.10;;;15.30;29.00;;;;;;5087690;28;20562;-84
2023/04/06 10:29:46;;;;;;;10.40;6.00;;;15.30;27.10;;;;;;5088076;28;20648;-84
2023/04/06 10:32:13;;;;;;;10.63;7.33;;;15.40;26.90;;;;;;5088160;28;20453;-83
2023/04/06 10:34:40;;;;;;;10.87;6.80;;;15.50;26.60;;;;;;5089998;28;20444;-84
2023/04/06 10:37:18;;;;;;;13.27;8.07;;;15.50;27.70;;;;;;5055335;28;20460;-84
2023/04/06 10:39:54;;;;;;;12.93;8.20;;;15.80;27.80;;;;;;5090757;28;20470;-84
2023/04/06 10:42:26;;;;;;;13.37;9.27;;;16.10;28.00;;;;;;5090238;28;20646;-84
2023/04/06 10:44:53;;;;;;;11.20;7.70;;;15.50;26.50;;;;;;5054349;28;20525;-83
2023/04/06 10:47:20;;;;;;;11.30;7.50;;;15.50;28.60;;;;;;5088712;28;20530;-84
2023/04/06 10:49:47;;;;;;;11.90;7.53;;;15.60;26.50;;;;;;5088475;28;20490;-84
2023/04/06 10:52:14;;;;;;;13.40;7.73;;;15.80;27.50;;;;;;5090713;28;20449;-84
2023/04/06 10:54:43;;;;;;;11.00;8.60;;;15.90;28.30;;;;;;5092386;28;20431;-83
2023/04/06 10:57:10;;;;;;;13.13;8.43;;;16.00;27.40;;;;;;5088796;28;20458;-84
2023/04/06 10:59:43;;;;;;;11.27;7.00;;;16.30;28.20;;;;;;5090006;28;20518;-85
2023/04/06 11:02:19;;;;;;;17.73;8.40;;;16.80;27.90;;;;;;5106491;27;20531;-84
2023/04/06 11:04:55;;;;;;;14.07;8.43;;;16.80;27.20;;;;;;5092057;28;20462;-84
2023/04/06 11:07:24;;;;;;;21.93;13.00;;;16.70;27.10;;;;;;5087841;28;20443;-84
2023/04/06 11:09:51;;;;;;;13.17;8.47;;;17.00;27.30;;;;;;5088805;28;20463;-85
2023/04/06 11:12:23;;;;;;;13.23;8.20;;;17.00;26.50;;;;;;5071634;28;20459;-84
2023/04/06 11:15:00;;;;;;;13.50;8.70;;;16.70;27.10;;;;;;5106717;27;20877;-84
2023/04/06 11:17:28;;;;;;;13.50;8.20;;;16.80;28.00;;;;;;5071276;27;20542;-82
2023/04/06 11:19:55;;;;;;;11.87;8.00;;;16.40;28.30;;;;;;5091831;28;20815;-83
2023/04/06 11:22:22;;;;;;;16.47;9.90;;;16.40;27.90;;;;;;5073111;27;20482;-84
2023/04/06 11:24:49;;;;;;;13.90;9.03;;;16.30;28.40;;;;;;5090768;28;20506;-84
2023/04/06 11:27:18;;;;;;;13.60;8.80;;;16.40;28.70;;;;;;5089944;27;22337;-84
2023/04/06 11:29:46;;;;;;;11.80;7.70;;;16.60;28.20;;;;;;5072033;28;21429;-83
2023/04/06 11:32:21;;;;;;;9.23;7.13;;;16.90;30.00;;;;;;5065012;28;20486;-85
2023/04/06 11:34:49;;;;;;;10.63;8.20;;;17.10;28.20;;;;;;5055437;28;20443;-84
2023/04/06 11:37:16;;;;;;;12.27;8.53;;;17.10;27.90;;;;;;5086116;27;20535;-83
2023/04/06 11:39:49;;;;;;;15.23;8.53;;;17.40;27.50;;;;;;5086720;28;20476;-83
2023/04/06 11:42:23;;;;;;;11.73;8.30;;;17.30;27.00;;;;;;5088237;28;20435;-84
2023/04/06 11:44:53;;;;;;;13.73;8.10;;;17.10;26.70;;;;;;5088990;28;20504;-84
2023/04/06 11:47:28;;;;;;;30.07;14.47;;;17.40;28.30;;;;;;5088244;28;20455;-85
2023/04/06 11:49:56;;;;;;;14.63;9.30;;;17.50;26.90;;;;;;5089613;28;20553;-83
2023/04/06 11:52:24;;;;;;;13.20;8.00;;;17.40;26.00;;;;;;5088478;28;21472;-84
2023/04/06 11:54:53;;;;;;;13.43;8.43;;;17.20;25.80;;;;;;5090553;28;20452;-84
2023/04/06 11:57:22;;;;;;;10.87;7.83;;;17.20;26.40;;;;;;5073984;28;20478;-85
2023/04/06 11:59:50;;;;;;;9.90;7.47;;;17.60;26.80;;;;;;5087252;28;20541;-84
2023/04/06 12:02:17;;;;;;;13.20;7.57;;;18.00;25.70;;;;;;5088393;28;20440;-85
2023/04/06 12:04:46;;;;;;;11.20;7.30;;;18.20;26.00;;;;;;5075562;28;20469;-85
2023/04/06 12:07:13;;;;;;;11.13;7.80;;;18.60;25.50;;;;;;5088146;28;20432;-82
2023/04/06 12:09:40;;;;;;;10.33;8.00;;;18.50;24.60;;;;;;5073291;28;20462;-86
2023/04/06 12:12:07;;;;;;;10.80;7.50;;;18.80;24.90;;;;;;5091093;28;20551;-83
2023/04/06 12:14:34;;;;;;;10.93;7.00;;;18.70;23.70;;;;;;5071304;28;20542;-85
2023/04/06 12:17:01;;;;;;;9.63;6.73;;;18.30;24.10;;;;;;5061087;28;20510;-83
2023/04/06 12:19:28;;;;;;;11.33;7.90;;;18.00;24.80;;;;;;5087735;28;20497;-84
2023/04/06 12:21:58;;;;;;;10.03;7.93;;;18.00;25.50;;;;;;5092527;28;20470;-83
2023/04/06 12:24:25;;;;;;;10.77;8.20;;;17.90;24.30;;;;;;5103275;27;20847;-85
2023/04/06 12:26:52;;;;;;;11.03;7.20;;;17.40;24.90;;;;;;5078860;28;20451;-84
2023/04/06 12:29:19;;;;;;;12.40;7.93;;;17.50;26.40;;;;;;5090033;28;20455;-85
2023/04/06 12:31:46;;;;;;;11.60;7.50;;;17.80;26.40;;;;;;5067447;28;20448;-82
2023/04/06 12:34:13;;;;;;;12.70;8.13;;;17.90;25.70;;;;;;5104206;27;20562;-84
2023/04/06 12:36:40;;;;;;;9.57;7.70;;;18.00;25.60;;;;;;5091918;28;20887;-82
2023/04/06 12:39:09;;;;;;;11.93;7.53;;;18.10;25.40;;;;;;5083559;28;20466;-85
2023/04/06 12:41:36;;;;;;;10.53;7.60;;;18.10;25.10;;;;;;5071689;28;20447;-85
2023/04/06 12:44:03;;;;;;;12.93;8.87;;;18.20;25.40;;;;;;5060213;28;20475;-85
2023/04/06 12:46:31;;;;;;;11.40;7.30;;;18.30;25.30;;;;;;5058848;28;20458;-84
2023/04/06 12:48:58;;;;;;;11.57;7.10;;;18.70;25.60;;;;;;5107259;27;20984;-85
2023/04/06 12:51:28;;;;;;;11.43;7.80;;;18.90;24.90;;;;;;5085706;28;20520;-84
2023/04/06 12:53:55;;;;;;;13.03;8.00;;;18.90;24.50;;;;;;5089562;28;20476;-84